Time;durP1;ratioP1;P1;durP2;ratioP2;P2;SDS_P1;SDS_P2;PMS_P1;PMS_P2;Temp;Humidity;BMP_temperature;BMP_pressure;BME280_temperature;BME280_humidity;BME280_pressure;Samples;Min_cycle;Max_cycle;Signal;HPM_P1;HPM_P2
2023/10/29 00:00:31;;;;;;;;;8.20;8.20;;;;;16.43;50.12;99053.28;5069276;28;8850;-80
2023/10/29 00:03:21;;;;;;;;;7.00;6.60;;;;;16.49;49.54;99044.16;5070345;28;9661;-80
2023/10/29 00:05:51;;;;;;;;;8.60;7.80;;;;;16.46;49.79;99037.25;5053378;28;8976;-81
2023/10/29 00:08:20;;;;;;;;;7.20;6.40;;;;;16.47;49.58;99036.28;5087731;28;8841;-79
2023/10/29 00:10:48;;;;;;;;;5.60;5.60;;;;;16.51;49.40;99042.28;5087866;28;8830;-77
2023/10/29 00:13:19;;;;;;;;;7.80;7.80;;;;;16.51;49.39;99040.50;5087559;28;9043;-79
2023/10/29 00:15:48;;;;;;;;;11.20;9.20;;;;;16.49;49.51;99038.88;5069771;28;8966;-79
2023/10/29 00:18:18;;;;;;;;;8.40;8.40;;;;;16.47;49.24;99035.44;5087678;28;8842;-81
2023/10/29 00:20:48;;;;;;;;;8.40;8.00;;;;;16.49;49.47;99039.72;5087724;28;8946;-79
2023/10/29 00:23:17;;;;;;;;;7.60;7.40;;;;;16.43;49.30;99046.16;5087406;28;8892;-80
2023/10/29 00:25:45;;;;;;;;;6.60;6.20;;;;;16.42;49.20;99043.63;5088270;28;8984;-77
2023/10/29 00:28:14;;;;;;;;;7.00;7.00;;;;;16.39;49.38;99044.63;5087587;28;8946;-77
2023/10/29 00:30:43;;;;;;;;;9.20;6.40;;;;;16.38;49.19;99042.06;5068557;28;8885;-77
2023/10/29 00:33:12;;;;;;;;;7.60;6.20;;;;;16.39;49.42;99043.78;5087150;28;8869;-78
2023/10/29 00:35:41;;;;;;;;;10.40;8.20;;;;;16.39;49.16;99047.28;5087198;28;8845;-77
2023/10/29 00:38:11;;;;;;;;;6.20;6.20;;;;;16.39;49.09;99039.31;5070545;28;8922;-78
2023/10/29 00:40:40;;;;;;;;;8.20;8.20;;;;;16.38;49.10;99047.38;5085080;28;8835;-77
2023/10/29 00:43:14;;;;;;;;;6.80;6.00;;;;;16.41;49.15;99041.91;5068163;28;8842;-78
2023/10/29 00:45:43;;;;;;;;;6.80;6.60;;;;;16.30;48.93;99042.44;5060046;28;8856;-76
2023/10/29 00:48:13;;;;;;;;;6.40;6.40;;;;;16.23;49.17;99044.59;5064715;28;8941;-78
2023/10/29 00:50:41;;;;;;;;;3.40;2.20;;;;;16.16;49.18;99045.84;5013979;28;8954;-76
2023/10/29 00:53:12;;;;;;;;;7.00;7.00;;;;;16.03;49.52;99042.97;5064578;28;8849;-77
2023/10/29 00:55:42;;;;;;;;;9.00;8.00;;;;;16.10;49.29;99050.63;5065225;28;9002;-77
2023/10/29 00:58:13;;;;;;;;;5.60;5.00;;;;;16.13;49.25;99050.44;5049715;28;9618;-78
2023/10/29 01:00:42;;;;;;;;;7.60;7.40;;;;;16.12;49.23;99046.94;5061696;28;8942;-79
2023/10/29 01:03:11;;;;;;;;;9.60;9.60;;;;;16.09;49.30;99052.38;5047765;28;8881;-78
2023/10/29 01:05:40;;;;;;;;;8.00;8.00;;;;;16.07;49.03;99048.97;5050895;28;8865;-79
2023/10/29 01:08:09;;;;;;;;;7.80;6.40;;;;;16.05;49.22;99048.19;5051118;28;8876;-79
2023/10/29 01:10:39;;;;;;;;;8.60;8.00;;;;;16.05;49.54;99045.53;5052976;28;8880;-78
2023/10/29 01:13:09;;;;;;;;;8.60;7.00;;;;;16.02;49.46;99048.38;5066989;28;8941;-78
2023/10/29 01:15:37;;;;;;;;;6.60;6.40;;;;;16.01;49.30;99050.13;5052627;28;8861;-78
2023/10/29 01:18:06;;;;;;;;;6.60;6.60;;;;;15.99;49.17;99046.72;5084401;28;8846;-78
2023/10/29 01:20:35;;;;;;;;;6.60;6.60;;;;;15.83;49.53;99038.69;5067279;28;8862;-81
2023/10/29 01:23:04;;;;;;;;;9.40;7.40;;;;;15.84;49.53;99042.19;5067531;28;8835;-78
2023/10/29 01:25:33;;;;;;;;;7.80;7.20;;;;;15.87;49.46;99043.81;5068892;28;8955;-77
2023/10/29 01:28:04;;;;;;;;;4.00;4.00;;;;;15.86;49.53;99044.78;5068574;28;8930;-78
2023/10/29 01:30:33;;;;;;;;;5.60;5.20;;;;;15.88;49.41;99046.41;5068611;28;8846;-76
2023/10/29 01:33:02;;;;;;;;;5.20;5.20;;;;;15.87;49.44;99044.69;5082874;28;8873;-77
2023/10/29 01:35:31;;;;;;;;;8.00;6.20;;;;;15.87;49.31;99050.00;5067072;28;8996;-78
2023/10/29 01:38:01;;;;;;;;;7.40;7.40;;;;;15.77;49.49;99054.88;5084151;28;8854;-79
2023/10/29 01:40:30;;;;;;;;;7.20;6.80;;;;;15.78;49.56;99053.13;5070384;28;8931;-78
2023/10/29 01:42:59;;;;;;;;;8.00;6.80;;;;;15.74;49.54;99051.56;5067070;28;8834;-79
2023/10/29 01:45:29;;;;;;;;;8.80;7.80;;;;;15.67;49.78;99050.16;5067148;28;8854;-77
2023/10/29 01:47:59;;;;;;;;;7.00;7.00;;;;;15.62;49.76;99042.41;5069332;28;9009;-76
2023/10/29 01:50:27;;;;;;;;;7.00;6.20;;;;;15.60;49.67;99045.16;5029788;28;8853;-77
2023/10/29 01:52:57;;;;;;;;;5.40;5.40;;;;;15.56;49.68;99048.84;5064102;28;8852;-78
2023/10/29 01:55:26;;;;;;;;;9.60;8.60;;;;;15.53;49.98;99062.25;5063694;28;8881;-77
2023/10/29 01:57:55;;;;;;;;;6.60;6.40;;;;;15.48;49.98;99058.97;5063464;28;8857;-77
2023/10/29 02:00:23;;;;;;;;;7.40;6.00;;;;;15.47;50.10;99061.69;5046040;28;8853;-77
2023/10/29 02:02:54;;;;;;;;;5.60;5.60;;;;;15.44;50.04;99060.06;5061534;28;9628;-77
2023/10/29 02:05:23;;;;;;;;;8.60;8.00;;;;;15.36;50.10;99059.53;5073386;28;8948;-77
2023/10/29 02:07:52;;;;;;;;;7.40;7.00;;;;;15.35;50.12;99056.03;5074538;28;8831;-79
2023/10/29 02:10:21;;;;;;;;;8.40;6.20;;;;;15.35;50.16;99055.19;5070252;28;8858;-78
2023/10/29 02:12:50;;;;;;;;;7.60;7.00;;;;;15.36;50.10;99062.19;5067099;28;8862;-76
2023/10/29 02:15:20;;;;;;;;;6.20;5.60;;;;;15.29;49.93;99056.34;5070972;28;8862;-77
2023/10/29 02:17:49;;;;;;;;;9.20;7.80;;;;;15.18;50.15;99058.66;5069475;28;8923;-76
2023/10/29 02:20:19;;;;;;;;;8.00;7.80;;;;;15.26;49.93;99059.13;5037452;28;8874;-79
2023/10/29 02:22:49;;;;;;;;;8.20;6.00;;;;;15.22;50.11;99062.88;5070905;28;8862;-78
2023/10/29 02:25:18;;;;;;;;;5.20;5.20;;;;;15.21;49.82;99069.97;5070721;28;8885;-77
2023/10/29 02:27:47;;;;;;;;;6.80;6.80;;;;;15.18;49.84;99075.38;5070544;28;8842;-81
2023/10/29 02:30:17;;;;;;;;;5.60;5.60;;;;;15.22;49.85;99076.09;5070862;28;8846;-76
2023/10/29 02:32:47;;;;;;;;;5.60;5.20;;;;;15.19;49.55;99078.91;5035946;28;8862;-79
2023/10/29 02:35:16;;;;;;;;;5.40;4.60;;;;;15.23;49.62;99077.84;5051630;28;8942;-78
2023/10/29 02:37:45;;;;;;;;;6.00;5.60;;;;;15.23;49.65;99083.97;5067111;28;8853;-77
2023/10/29 02:40:16;;;;;;;;;5.40;5.40;;;;;15.22;49.43;99076.97;5072843;28;8854;-80
2023/10/29 02:42:45;;;;;;;;;7.40;7.40;;;;;15.25;49.21;99090.06;5070539;28;8850;-79
2023/10/29 02:45:14;;;;;;;;;5.60;5.60;;;;;15.24;49.21;99084.84;5070452;28;8865;-79
2023/10/29 02:47:43;;;;;;;;;5.00;5.00;;;;;15.21;49.09;99091.16;5054052;28;8850;-77
2023/10/29 02:50:12;;;;;;;;;7.00;5.00;;;;;15.23;49.10;99086.63;5070341;28;8839;-76
2023/10/29 02:52:41;;;;;;;;;4.80;4.60;;;;;15.19;48.70;99078.91;5085043;28;8870;-77
2023/10/29 02:55:10;;;;;;;;;4.40;4.40;;;;;15.17;48.78;99088.69;5003888;28;8974;-78
2023/10/29 02:57:40;;;;;;;;;4.00;4.00;;;;;15.06;48.96;99092.72;5071290;28;8846;-77
2023/10/29 03:00:12;;;;;;;;;3.80;3.60;;;;;15.06;48.95;99097.16;5072034;28;9615;-78
2023/10/29 03:02:41;;;;;;;;;3.00;3.00;;;;;15.02;48.90;99100.88;5022371;28;8896;-80
2023/10/29 03:05:11;;;;;;;;;4.60;4.00;;;;;14.98;48.99;99099.28;5032779;28;9078;-78
2023/10/29 03:07:41;;;;;;;;;6.20;4.00;;;;;14.96;48.84;99104.69;5068515;28;8841;-78
2023/10/29 03:10:10;;;;;;;;;4.00;4.00;;;;;14.95;48.78;99104.75;5019390;28;8940;-78
2023/10/29 03:12:40;;;;;;;;;4.00;3.40;;;;;14.94;48.88;99113.59;5088096;28;8989;-77
2023/10/29 03:15:10;;;;;;;;;7.20;5.40;;;;;14.99;48.61;99114.25;5088516;28;8859;-77
2023/10/29 03:17:38;;;;;;;;;5.40;5.40;;;;;14.99;48.66;99114.25;5071732;28;9676;-79
2023/10/29 03:20:09;;;;;;;;;5.80;5.00;;;;;14.95;48.71;99124.13;5079537;28;8864;-79
2023/10/29 03:22:38;;;;;;;;;4.20;4.20;;;;;15.00;48.65;99129.19;5068209;28;9039;-77
2023/10/29 03:25:09;;;;;;;;;7.20;6.00;;;;;14.92;48.82;99136.63;5002782;28;8958;-77
2023/10/29 03:27:37;;;;;;;;;7.40;4.80;;;;;14.92;48.89;99134.84;5083825;28;8939;-79
2023/10/29 03:30:09;;;;;;;;;3.60;3.60;;;;;14.97;48.70;99137.28;5056126;28;8874;-79
2023/10/29 03:32:38;;;;;;;;;4.20;4.00;;;;;14.95;48.50;99141.78;5072429;28;9635;-78
2023/10/29 03:35:07;;;;;;;;;4.20;3.80;;;;;14.90;48.54;99141.13;5071887;28;8960;-79
2023/10/29 03:37:36;;;;;;;;;5.00;4.20;;;;;14.75;48.94;99140.03;5088717;28;8855;-77
2023/10/29 03:40:06;;;;;;;;;7.80;6.80;;;;;14.35;50.25;99139.97;5069476;28;8885;-79
2023/10/29 03:42:36;;;;;;;;;5.00;5.00;;;;;14.34;50.17;99140.03;5063738;28;8846;-77
2023/10/29 03:45:06;;;;;;;;;6.20;5.80;;;;;14.40;49.60;99143.28;5069596;28;8945;-78
2023/10/29 03:47:36;;;;;;;;;6.40;6.00;;;;;14.17;50.67;99140.75;5070922;28;8872;-80
2023/10/29 03:50:06;;;;;;;;;5.60;5.60;;;;;14.42;49.84;99140.56;5069343;28;8851;-77
2023/10/29 03:52:35;;;;;;;;;4.00;4.00;;;;;14.46;49.70;99152.72;5019073;28;8957;-78
2023/10/29 03:55:05;;;;;;;;;7.40;5.00;;;;;14.49;49.65;99155.25;5069010;28;8878;-79
2023/10/29 03:57:34;;;;;;;;;5.80;5.00;;;;;14.58;49.42;99157.47;5061804;28;8961;-76
2023/10/29 04:00:04;;;;;;;;;7.80;6.00;;;;;14.54;49.58;99161.19;5031451;28;8857;-78
2023/10/29 04:02:41;;;;;;;;;5.20;5.20;;;;;14.67;49.29;99165.00;5049682;28;9650;-80
2023/10/29 04:05:10;;;;;;;;;6.40;6.00;;;;;14.75;49.11;99161.19;5048633;28;8876;-79
2023/10/29 04:07:39;;;;;;;;;5.20;5.00;;;;;14.77;49.16;99162.00;5048984;28;8848;-78
2023/10/29 04:10:10;;;;;;;;;4.20;4.20;;;;;14.78;48.93;99167.22;5050720;28;8962;-76
2023/10/29 04:12:38;;;;;;;;;8.80;7.60;;;;;14.81;48.79;99168.84;5052185;28;8934;-78
2023/10/29 04:15:08;;;;;;;;;8.00;8.00;;;;;14.73;48.96;99165.72;5070073;28;8870;-76
2023/10/29 04:17:37;;;;;;;;;7.20;7.20;;;;;14.79;48.76;99179.53;5069997;28;9580;-78
2023/10/29 04:20:09;;;;;;;;;22.00;21.00;;;;;14.84;48.78;99179.31;5069620;28;8842;-78
2023/10/29 04:22:38;;;;;;;;;9.20;7.40;;;;;14.83;48.60;99178.47;5035061;28;8862;-78
2023/10/29 04:25:08;;;;;;;;;5.80;5.80;;;;;14.83;48.53;99181.13;5034300;28;8843;-79
2023/10/29 04:27:36;;;;;;;;;8.80;6.00;;;;;14.81;48.48;99179.44;5051868;28;8843;-79
2023/10/29 04:30:07;;;;;;;;;6.20;6.20;;;;;14.73;48.46;99184.22;5070650;28;8854;-76
2023/10/29 04:32:36;;;;;;;;;6.20;5.20;;;;;14.69;48.71;99183.47;5068142;28;8947;-78
2023/10/29 04:35:06;;;;;;;;;6.20;6.20;;;;;14.78;48.38;99174.31;5069490;28;8869;-78
2023/10/29 04:37:36;;;;;;;;;5.20;4.00;;;;;14.77;48.33;99181.41;5033460;28;8847;-78
2023/10/29 04:40:06;;;;;;;;;6.00;6.00;;;;;14.79;48.06;99176.00;5072600;28;8838;-76
2023/10/29 04:42:35;;;;;;;;;6.80;6.20;;;;;14.63;47.88;99181.09;5033647;28;8846;-77
2023/10/29 04:45:05;;;;;;;;;6.80;6.20;;;;;14.72;47.90;99186.03;5033769;28;8850;-78
2023/10/29 04:47:33;;;;;;;;;4.60;4.60;;;;;14.60;48.17;99187.41;5069406;28;9627;-79
2023/10/29 04:50:03;;;;;;;;;4.40;4.40;;;;;14.72;47.73;99193.06;5050917;28;8846;-77
2023/10/29 04:52:31;;;;;;;;;7.00;6.60;;;;;14.67;47.60;99193.25;5067616;28;9575;-80
2023/10/29 04:55:05;;;;;;;;;6.60;6.00;;;;;14.70;47.74;99195.78;5069115;28;8843;-77
2023/10/29 04:57:33;;;;;;;;;5.80;5.80;;;;;14.74;47.40;99199.19;5056258;28;8853;-78
2023/10/29 05:00:04;;;;;;;;;5.60;4.60;;;;;14.61;47.66;99210.25;5049184;28;9704;-75
2023/10/29 05:02:33;;;;;;;;;8.20;5.80;;;;;14.60;47.41;99205.03;5057701;28;8925;-78
2023/10/29 05:05:03;;;;;;;;;7.20;5.60;;;;;14.55;47.31;99199.94;5067629;28;9607;-76
2023/10/29 05:07:32;;;;;;;;;5.00;5.00;;;;;14.61;47.13;99199.66;5068816;28;8874;-76
2023/10/29 05:10:02;;;;;;;;;5.00;4.80;;;;;14.67;46.91;99198.53;5033885;28;8864;-78
2023/10/29 05:12:31;;;;;;;;;4.60;4.60;;;;;14.68;46.59;99193.19;5027801;28;8844;-79
2023/10/29 05:15:00;;;;;;;;;5.00;5.00;;;;;14.66;46.54;99202.13;5048695;28;8837;-76
2023/10/29 05:17:29;;;;;;;;;3.00;3.00;;;;;14.62;46.48;99197.88;5064175;28;8856;-77
2023/10/29 05:19:58;;;;;;;;;5.60;5.00;;;;;14.67;46.36;99198.53;5056546;28;8977;-78
2023/10/29 05:22:27;;;;;;;;;5.00;5.00;;;;;14.72;46.14;99199.25;5051300;28;9618;-78
2023/10/29 05:24:56;;;;;;;;;5.00;5.00;;;;;14.72;45.94;99195.72;5034235;28;8951;-76
2023/10/29 05:27:26;;;;;;;;;4.60;4.00;;;;;14.76;45.80;99205.28;5066865;28;8937;-78
2023/10/29 05:29:55;;;;;;;;;1.00;1.00;;;;;14.72;45.76;99203.66;5014041;28;8872;-78
2023/10/29 05:32:24;;;;;;;;;5.00;4.20;;;;;14.75;45.41;99204.38;5066425;28;8873;-78
2023/10/29 05:34:53;;;;;;;;;4.80;3.60;;;;;14.84;45.26;99206.63;5068420;28;8862;-78
2023/10/29 05:37:22;;;;;;;;;7.20;6.60;;;;;14.88;44.96;99211.81;5068471;28;8858;-77
2023/10/29 05:39:51;;;;;;;;;6.20;5.80;;;;;14.83;44.82;99209.38;5035537;28;8842;-79
2023/10/29 05:42:20;;;;;;;;;4.60;4.00;;;;;14.82;44.90;99208.50;5067867;28;8862;-78
2023/10/29 05:44:51;;;;;;;;;3.00;3.00;;;;;14.79;44.98;99223.63;5049416;28;8856;-78
2023/10/29 05:47:19;;;;;;;;;5.20;3.00;;;;;14.61;45.23;99227.91;5049198;28;8865;-79
2023/10/29 05:49:48;;;;;;;;;3.00;3.00;;;;;14.83;44.90;99222.59;5050637;28;8860;-77
2023/10/29 05:52:17;;;;;;;;;4.40;4.00;;;;;14.82;44.85;99228.81;5049002;28;8946;-77
2023/10/29 05:54:46;;;;;;;;;4.00;4.00;;;;;14.88;44.54;99235.63;5069140;28;8850;-78
2023/10/29 05:57:16;;;;;;;;;6.00;4.40;;;;;14.78;44.79;99237.81;5069192;28;8858;-79
2023/10/29 05:59:45;;;;;;;;;4.40;4.40;;;;;14.76;45.12;99240.50;5067163;28;8862;-81
2023/10/29 06:02:15;;;;;;;;;5.60;4.00;;;;;14.97;44.55;99237.88;5068323;28;8874;-78
2023/10/29 06:04:46;;;;;;;;;4.00;4.00;;;;;15.16;44.34;99246.69;5068550;28;9005;-77
2023/10/29 06:07:16;;;;;;;;;4.00;4.00;;;;;15.08;44.36;99251.50;5068197;28;8874;-78
2023/10/29 06:09:46;;;;;;;;;5.80;5.20;;;;;14.84;44.77;99243.69;5068125;28;8931;-77
2023/10/29 06:12:14;;;;;;;;;5.80;5.00;;;;;14.88;44.73;99248.84;5066761;28;8921;-76
2023/10/29 06:14:45;;;;;;;;;6.00;6.00;;;;;14.89;44.80;99250.59;5066976;28;8861;-80
2023/10/29 06:17:16;;;;;;;;;5.20;4.40;;;;;15.14;44.28;99251.22;5068749;28;8939;-79
2023/10/29 06:19:55;;;;;;;;;4.80;4.80;;;;;15.04;44.39;99257.84;5068685;28;8850;-76
2023/10/29 06:22:23;;;;;;;;;5.00;4.20;;;;;15.06;44.04;99256.00;5033787;28;8880;-76
2023/10/29 06:24:52;;;;;;;;;5.20;4.00;;;;;15.05;43.90;99262.19;5068129;28;9612;-76
2023/10/29 06:27:21;;;;;;;;;8.00;6.00;;;;;15.01;44.46;99258.81;5069667;28;8870;-78
2023/10/29 06:29:51;;;;;;;;;5.80;5.00;;;;;15.08;44.17;99255.94;5066917;28;8827;-79
2023/10/29 06:32:21;;;;;;;;;14.60;10.80;;;;;15.39;43.61;99258.03;5067939;28;8854;-78
2023/10/29 06:34:50;;;;;;;;;15.20;14.20;;;;;15.34;43.68;99260.03;5066380;28;8854;-76
2023/10/29 06:37:18;;;;;;;;;5.00;5.00;;;;;15.47;43.26;99260.34;5031401;28;8881;-79
2023/10/29 06:39:48;;;;;;;;;6.80;6.40;;;;;15.57;43.16;99261.66;5068196;28;8960;-79
2023/10/29 06:42:16;;;;;;;;;6.60;6.60;;;;;15.76;42.66;99265.19;5067093;28;8953;-82
2023/10/29 06:44:46;;;;;;;;;7.00;5.80;;;;;15.78;42.58;99260.69;5066562;28;8884;-77
2023/10/29 06:47:15;;;;;;;;;4.80;4.80;;;;;15.92;42.37;99265.31;5067797;28;8862;-80
2023/10/29 06:49:45;;;;;;;;;4.00;4.00;;;;;15.93;42.38;99276.78;5068202;28;8849;-78
2023/10/29 06:52:14;;;;;;;;;6.00;5.00;;;;;16.16;41.72;99281.00;5083773;28;8996;-80
2023/10/29 06:54:43;;;;;;;;;6.60;6.60;;;;;16.17;42.24;99272.09;5085201;28;8899;-79
2023/10/29 06:57:11;;;;;;;;;6.80;5.40;;;;;16.31;41.80;99279.38;5037634;28;8899;-77
2023/10/29 06:59:41;;;;;;;;;62.50;49.00;;;;;16.38;41.74;99278.16;5026412;28;9635;-79
2023/10/29 07:02:09;;;;;;;;;12.20;10.80;;;;;16.39;41.54;99280.72;5028553;28;8872;-77
2023/10/29 07:04:39;;;;;;;;;5.80;5.40;;;;;16.37;41.50;99285.22;5028854;28;8959;-82
2023/10/29 07:07:11;;;;;;;;;7.20;5.20;;;;;16.66;41.19;99287.41;4996190;28;8927;-80
2023/10/29 07:09:40;;;;;;;;;7.80;7.00;;;;;16.86;40.82;99283.75;5044607;28;8884;-77
2023/10/29 07:12:09;;;;;;;;;5.60;5.60;;;;;17.12;40.38;99277.94;5052714;28;8897;-79
2023/10/29 07:14:38;;;;;;;;;7.40;6.60;;;;;17.13;40.41;99284.97;5049228;28;9016;-78
2023/10/29 07:17:06;;;;;;;;;7.20;7.20;;;;;17.41;39.73;99278.22;5031154;28;8899;-80
2023/10/29 07:19:35;;;;;;;;;5.80;5.80;;;;;17.35;39.72;99282.06;4995819;28;8865;-81
2023/10/29 07:22:04;;;;;;;;;15.40;14.40;;;;;17.38;39.67;99286.34;5028347;28;8871;-77
2023/10/29 07:24:36;;;;;;;;;8.20;6.20;;;;;17.48;38.95;99279.63;5004957;28;8849;-78
2023/10/29 07:27:05;;;;;;;;;12.60;9.20;;;;;17.77;39.01;99285.16;5047952;28;8867;-79
2023/10/29 07:29:34;;;;;;;;;6.40;6.40;;;;;17.92;38.56;99284.28;5068100;28;8846;-78
2023/10/29 07:32:03;;;;;;;;;6.40;5.80;;;;;17.96;38.48;99284.97;5052358;28;8854;-82
2023/10/29 07:34:32;;;;;;;;;5.40;4.40;;;;;18.25;37.83;99286.06;5069370;28;8855;-78
2023/10/29 07:37:01;;;;;;;;;3.80;3.60;;;;;18.23;37.94;99282.63;5070705;28;8881;-79
2023/10/29 07:39:30;;;;;;;;;5.60;5.60;;;;;18.40;37.37;99286.09;5061864;28;8969;-79
2023/10/29 07:42:02;;;;;;;;;6.20;6.20;;;;;18.60;37.35;99282.28;5015166;28;8869;-78
2023/10/29 07:44:31;;;;;;;;;3.80;3.20;;;;;18.76;36.95;99280.41;5069265;28;8877;-79
2023/10/29 07:47:03;;;;;;;;;6.80;6.00;;;;;18.65;36.82;99281.06;5070478;28;8850;-76
2023/10/29 07:49:32;;;;;;;;;3.40;3.40;;;;;18.73;36.24;99286.78;5069116;28;8834;-81
2023/10/29 07:52:00;;;;;;;;;6.00;6.00;;;;;18.58;36.90;99279.72;5003104;28;8858;-77
2023/10/29 07:54:29;;;;;;;;;4.40;3.60;;;;;18.80;36.31;99281.13;5065652;28;8836;-77
2023/10/29 07:57:00;;;;;;;;;4.00;4.00;;;;;18.98;36.13;99280.03;5051198;28;8975;-78
2023/10/29 07:59:29;;;;;;;;;14.60;10.80;;;;;19.09;36.06;99280.25;5066060;28;8863;-81
2023/10/29 08:01:58;;;;;;;;;3.40;3.40;;;;;19.11;35.75;99277.50;5066765;28;8869;-80
2023/10/29 08:04:27;;;;;;;;;7.00;7.00;;;;;19.06;35.72;99288.41;5071767;28;8846;-79
2023/10/29 08:06:56;;;;;;;;;5.80;5.00;;;;;19.25;35.38;99277.53;5070712;28;8942;-77
2023/10/29 08:09:25;;;;;;;;;5.20;4.80;;;;;19.21;34.90;99280.44;5069625;28;9596;-80
2023/10/29 08:11:53;;;;;;;;;3.00;3.00;;;;;19.04;34.36;99274.31;5070220;28;8850;-81
2023/10/29 08:14:24;;;;;;;;;4.40;4.40;;;;;19.28;34.17;99271.97;5071548;28;8961;-77
2023/10/29 08:16:52;;;;;;;;;4.80;2.80;;;;;19.17;34.09;99271.78;5069081;28;8875;-77
2023/10/29 08:19:23;;;;;;;;;5.00;5.00;;;;;19.36;34.07;99276.84;5069596;28;8920;-78
2023/10/29 08:21:52;;;;;;;;;11.80;11.80;;;;;19.42;33.66;99286.25;5069420;28;8850;-80
2023/10/29 08:24:21;;;;;;;;;4.60;4.60;;;;;19.45;33.41;99286.94;5069723;28;8839;-81
2023/10/29 08:26:50;;;;;;;;;5.80;5.80;;;;;19.57;33.39;99277.34;5069564;28;8973;-81
2023/10/29 08:29:19;;;;;;;;;2.80;2.40;;;;;19.36;33.25;99276.84;5069682;28;8850;-78
2023/10/29 08:31:49;;;;;;;;;4.60;4.60;;;;;19.55;33.06;99273.06;5061905;28;8829;-79
2023/10/29 08:34:18;;;;;;;;;4.80;4.60;;;;;19.68;32.98;99272.19;5014887;28;8887;-80
2023/10/29 08:36:47;;;;;;;;;5.00;5.00;;;;;19.88;32.67;99278.94;5014832;28;9020;-79
2023/10/29 08:39:16;;;;;;;;;4.60;4.60;;;;;19.98;33.02;99286.34;5053789;28;8847;-80
2023/10/29 08:41:45;;;;;;;;;6.40;5.60;;;;;20.09;32.83;99279.34;5067935;28;8856;-80
2023/10/29 08:44:14;;;;;;;;;4.80;4.80;;;;;20.13;32.95;99285.34;5067700;28;8846;-81
2023/10/29 08:46:44;;;;;;;;;11.20;10.60;;;;;20.39;33.13;99282.84;5049227;28;8974;-79
2023/10/29 08:49:15;;;;;;;;;4.40;3.20;;;;;20.58;32.32;99285.13;5049437;28;9629;-78
2023/10/29 08:51:43;;;;;;;;;5.00;3.20;;;;;20.65;31.75;99289.06;5061272;28;8846;-81
2023/10/29 08:54:12;;;;;;;;;5.00;4.00;;;;;20.80;31.27;99285.41;5052518;28;8912;-79
2023/10/29 08:56:41;;;;;;;;;5.40;5.20;;;;;20.77;31.48;99290.09;5024191;28;8862;-78
2023/10/29 08:59:10;;;;;;;;;2.00;2.00;;;;;20.83;30.61;99289.66;5070022;28;8927;-80
2023/10/29 09:01:40;;;;;;;;;1.80;1.80;;;;;20.50;30.65;99304.34;5069878;28;8901;-77
2023/10/29 09:04:10;;;;;;;;;3.00;3.00;;;;;20.58;30.20;99299.34;5065490;28;8873;-78
2023/10/29 09:06:41;;;;;;;;;2.20;1.40;;;;;20.73;29.76;99304.59;5049548;28;8879;-80
2023/10/29 09:09:11;;;;;;;;;2.80;2.00;;;;;20.65;30.43;99305.09;5049112;28;8856;-78
2023/10/29 09:11:43;;;;;;;;;2.80;2.00;;;;;20.93;30.40;99316.66;5064065;28;8846;-80
2023/10/29 09:14:13;;;;;;;;;1.20;1.20;;;;;21.00;29.18;99310.78;5068780;28;8940;-79
2023/10/29 09:16:44;;;;;;;;;2.00;2.00;;;;;21.17;29.71;99306.94;5018660;28;8838;-80
2023/10/29 09:19:13;;;;;;;;;2.40;2.40;;;;;20.93;29.57;99308.63;5054199;28;8946;-77
2023/10/29 09:21:44;;;;;;;;;20.80;19.80;;;;;20.87;29.56;99315.22;5052520;28;8891;-78
2023/10/29 09:24:13;;;;;;;;;7.20;5.80;;;;;21.10;29.68;99304.81;5059780;28;8846;-79
2023/10/29 09:26:42;;;;;;;;;4.00;2.60;;;;;21.28;29.30;99306.22;5070540;28;8862;-79
2023/10/29 09:29:11;;;;;;;;;2.00;2.00;;;;;21.04;28.99;99303.41;5069799;28;9086;-78
2023/10/29 09:31:39;;;;;;;;;3.00;2.20;;;;;21.34;29.23;99300.44;5067939;28;9630;-78
2023/10/29 09:34:09;;;;;;;;;3.00;3.00;;;;;21.37;28.43;99304.69;5067351;28;8885;-78
2023/10/29 09:36:39;;;;;;;;;2.20;2.20;;;;;21.43;28.67;99309.63;5068739;28;9628;-79
2023/10/29 09:39:09;;;;;;;;;2.80;2.80;;;;;21.51;27.71;99311.78;5033527;28;8819;-80
2023/10/29 09:41:39;;;;;;;;;2.20;1.20;;;;;21.18;27.58;99315.81;5072757;28;8830;-77
2023/10/29 09:44:12;;;;;;;;;4.80;4.00;;;;;21.46;27.86;99309.41;5072300;28;8962;-79
2023/10/29 09:46:43;;;;;;;;;3.00;2.40;;;;;21.42;27.83;99311.44;5071370;28;8866;-78
2023/10/29 09:49:13;;;;;;;;;2.00;2.00;;;;;21.69;27.65;99306.94;5061327;28;8841;-81
2023/10/29 09:51:42;;;;;;;;;2.60;2.00;;;;;21.89;27.69;99310.88;5049263;28;8865;-78
2023/10/29 09:54:13;;;;;;;;;9.20;8.00;;;;;21.56;27.88;99310.47;5063715;28;8877;-78
2023/10/29 09:56:42;;;;;;;;;5.60;4.00;;;;;21.80;28.46;99297.19;5062810;28;8938;-78
2023/10/29 09:59:11;;;;;;;;;4.40;3.80;;;;;21.92;27.93;99298.16;5040546;28;8954;-78
2023/10/29 10:01:41;;;;;;;;;71.67;59.33;;;;;21.78;27.11;99290.25;5047101;28;8885;-79
2023/10/29 10:04:25;;;;;;;;;6.20;6.00;;;;;21.97;26.91;99293.28;5050801;28;9121;-78
2023/10/29 10:06:57;;;;;;;;;3.80;3.00;;;;;21.82;27.03;99287.25;5048511;28;8849;-77
2023/10/29 10:09:28;;;;;;;;;2.00;2.00;;;;;22.03;26.46;99283.97;5048382;28;8875;-79
2023/10/29 10:12:04;;;;;;;;;2.20;2.00;;;;;22.26;27.19;99287.69;5068601;28;8972;-80
2023/10/29 10:14:33;;;;;;;;;0.80;0.80;;;;;22.24;26.14;99284.22;5068216;28;8865;-78
2023/10/29 10:17:09;;;;;;;;;2.00;2.00;;;;;22.47;25.99;99285.22;5068201;28;8915;-80
2023/10/29 10:19:38;;;;;;;;;2.00;2.00;;;;;22.00;26.04;99279.69;5028907;28;9007;-81
2023/10/29 10:22:07;;;;;;;;;3.40;2.00;;;;;22.37;26.13;99276.16;5046973;28;8867;-82
2023/10/29 10:24:40;;;;;;;;;2.60;2.00;;;;;22.56;26.54;99279.19;5048886;28;8869;-81
2023/10/29 10:27:09;;;;;;;;;2.40;2.40;;;;;22.71;26.41;99268.25;5027290;28;8854;-79
2023/10/29 10:29:38;;;;;;;;;38.40;33.00;;;;;22.60;25.77;99261.91;5071324;28;8877;-78
2023/10/29 10:32:08;;;;;;;;;5.00;5.00;;;;;22.40;26.09;99267.91;5070303;28;8850;-79
2023/10/29 10:34:38;;;;;;;;;5.00;5.00;;;;;22.67;26.21;99267.63;5070112;28;8928;-81
2023/10/29 10:37:06;;;;;;;;;5.20;3.00;;;;;22.72;24.87;99264.63;5055529;28;8865;-81
2023/10/29 10:39:35;;;;;;;;;3.40;3.40;;;;;22.80;25.52;99265.72;5062998;28;8858;-79
2023/10/29 10:42:06;;;;;;;;;4.00;4.00;;;;;23.04;26.30;99264.00;5070875;28;8842;-81
2023/10/29 10:44:37;;;;;;;;;8.00;8.00;;;;;23.13;26.21;99249.88;5036938;28;8850;-80
2023/10/29 10:47:06;;;;;;;;;3.80;2.40;;;;;23.09;24.88;99249.28;5070682;28;9032;-80
2023/10/29 10:49:35;;;;;;;;;19.40;18.00;;;;;23.29;25.02;99250.38;5071396;28;8931;-84
2023/10/29 10:52:06;;;;;;;;;7.20;7.20;;;;;23.27;24.81;99246.94;5054611;28;8853;-82
2023/10/29 10:54:37;;;;;;;;;7.80;7.20;;;;;23.38;25.36;99246.13;5070464;28;8949;-79
2023/10/29 10:57:09;;;;;;;;;4.20;3.00;;;;;23.29;24.21;99239.63;5092164;28;8846;-81
2023/10/29 10:59:40;;;;;;;;;4.20;2.00;;;;;23.38;22.98;99233.53;5070494;28;8943;-81
2023/10/29 11:02:12;;;;;;;;;1.40;1.40;;;;;23.32;23.14;99239.41;5005483;28;8969;-81
2023/10/29 11:04:42;;;;;;;;;1.40;1.40;;;;;23.61;23.40;99230.88;5036226;28;8892;-81
2023/10/29 11:07:12;;;;;;;;;3.00;3.00;;;;;23.81;23.22;99231.97;5068836;28;8895;-80
2023/10/29 11:09:41;;;;;;;;;62.50;50.25;;;;;23.97;22.56;99221.66;5069518;28;8935;-79
2023/10/29 11:12:11;;;;;;;;;16.00;15.60;;;;;24.19;22.99;99221.75;5051404;28;9580;-80
2023/10/29 11:15:14;;;;;;;;;11.80;10.20;;;;;24.58;23.32;99222.91;5070362;28;8850;-82
2023/10/29 11:17:58;;;;;;;;;4.00;3.00;;;;;24.72;25.04;99221.75;5069146;28;8985;-84
2023/10/29 11:20:56;;;;;;;;;4.20;3.80;;;;;24.83;24.65;99216.34;5079456;28;9689;-83
2023/10/29 11:23:27;;;;;;;;;6.00;3.80;;;;;24.67;25.09;99222.13;5048879;28;8959;-81
2023/10/29 11:26:23;;;;;;;;;5.60;5.60;;;;;24.84;24.65;99220.72;5062583;28;8834;-80
2023/10/29 11:28:54;;;;;;;;;4.20;4.20;;;;;24.80;24.43;99221.97;4998474;28;8881;-79
2023/10/29 11:31:26;;;;;;;;;3.40;3.40;;;;;24.77;24.74;99227.59;5012883;28;9027;-78
2023/10/29 11:34:33;;;;;;;;;5.80;5.00;;;;;24.91;24.93;99221.91;5010704;28;8869;-78
2023/10/29 11:37:22;;;;;;;;;2.60;2.60;;;;;24.45;24.85;99223.13;5006869;28;8869;-80
2023/10/29 11:39:50;;;;;;;;;4.80;4.80;;;;;24.51;25.09;99224.44;4991332;28;8866;-78
2023/10/29 11:42:26;;;;;;;;;3.80;3.80;;;;;24.57;25.24;99225.75;4991616;28;8862;-81
2023/10/29 11:45:33;;;;;;;;;1.80;1.80;;;;;24.52;25.27;99228.81;4995336;28;8897;-79
2023/10/29 11:48:14;;;;;;;;;4.20;4.20;;;;;24.48;24.85;99219.31;4913605;29;8871;-77
2023/10/29 11:51:19;;;;;;;;;7.80;7.80;;;;;24.41;25.31;99221.66;4910970;29;8913;-80
2023/10/29 11:53:49;;;;;;;;;7.60;5.00;;;;;24.26;25.35;99217.56;4894870;29;8869;-80
2023/10/29 11:56:19;;;;;;;;;3.00;3.00;;;;;24.26;25.21;99221.13;4876312;29;8873;-77